sensor_id;sensor_type;location;lat;lon;timestamp;temperature;humidity
11491;DHT22;5802;52.832;4.758;2023-06-14T00:01:45;27.20;42.50
11491;DHT22;5802;52.832;4.758;2023-06-14T00:04:12;27.20;42.40
11491;DHT22;5802;52.832;4.758;2023-06-14T00:06:42;27.20;42.40
11491;DHT22;5802;52.832;4.758;2023-06-14T00:09:10;27.20;42.50
11491;DHT22;5802;52.832;4.758;2023-06-14T00:11:39;27.20;42.40
11491;DHT22;5802;52.832;4.758;2023-06-14T00:14:06;27.10;42.40
11491;DHT22;5802;52.832;4.758;2023-06-14T00:16:33;27.20;42.40
11491;DHT22;5802;52.832;4.758;2023-06-14T00:19:00;27.10;42.40
11491;DHT22;5802;52.832;4.758;2023-06-14T00:21:28;27.10;42.30
11491;DHT22;5802;52.832;4.758;2023-06-14T00:23:55;27.10;42.40
11491;DHT22;5802;52.832;4.758;2023-06-14T00:26:22;27.00;42.30
11491;DHT22;5802;52.832;4.758;2023-06-14T00:28:50;27.10;42.40
11491;DHT22;5802;52.832;4.758;2023-06-14T00:31:17;27.00;42.30
11491;DHT22;5802;52.832;4.758;2023-06-14T00:33:43;27.00;42.70
11491;DHT22;5802;52.832;4.758;2023-06-14T00:36:10;27.00;42.30
11491;DHT22;5802;52.832;4.758;2023-06-14T00:38:37;27.00;42.30
11491;DHT22;5802;52.832;4.758;2023-06-14T00:41:03;27.00;42.30
11491;DHT22;5802;52.832;4.758;2023-06-14T00:43:30;26.90;42.20
11491;DHT22;5802;52.832;4.758;2023-06-14T00:45:58;26.90;42.40
11491;DHT22;5802;52.832;4.758;2023-06-14T00:48:25;26.90;42.40
11491;DHT22;5802;52.832;4.758;2023-06-14T00:50:51;26.90;42.40
11491;DHT22;5802;52.832;4.758;2023-06-14T00:53:19;26.90;42.40
11491;DHT22;5802;52.832;4.758;2023-06-14T00:55:48;26.90;42.40
11491;DHT22;5802;52.832;4.758;2023-06-14T00:58:15;26.80;42.40
11491;DHT22;5802;52.832;4.758;2023-06-14T01:00:42;26.80;42.30
11491;DHT22;5802;52.832;4.758;2023-06-14T01:03:11;26.80;42.40
11491;DHT22;5802;52.832;4.758;2023-06-14T01:05:38;26.80;42.40
11491;DHT22;5802;52.832;4.758;2023-06-14T01:08:20;26.80;42.30
11491;DHT22;5802;52.832;4.758;2023-06-14T01:10:56;26.80;42.30
11491;DHT22;5802;52.832;4.758;2023-06-14T01:13:29;26.70;42.30
11491;DHT22;5802;52.832;4.758;2023-06-14T01:15:59;26.70;42.20
11491;DHT22;5802;52.832;4.758;2023-06-14T01:18:28;26.70;42.10
11491;DHT22;5802;52.832;4.758;2023-06-14T01:20:55;26.70;42.20
11491;DHT22;5802;52.832;4.758;2023-06-14T01:23:23;26.70;42.20
11491;DHT22;5802;52.832;4.758;2023-06-14T01:25:50;26.70;42.20
11491;DHT22;5802;52.832;4.758;2023-06-14T01:28:19;26.70;42.10
11491;DHT22;5802;52.832;4.758;2023-06-14T01:30:49;26.70;42.10
11491;DHT22;5802;52.832;4.758;2023-06-14T01:33:19;26.60;42.00
11491;DHT22;5802;52.832;4.758;2023-06-14T01:35:48;26.60;42.10
11491;DHT22;5802;52.832;4.758;2023-06-14T01:38:15;26.60;42.10
11491;DHT22;5802;52.832;4.758;2023-06-14T01:40:45;26.60;42.00
11491;DHT22;5802;52.832;4.758;2023-06-14T01:43:14;26.60;42.10
11491;DHT22;5802;52.832;4.758;2023-06-14T01:45:41;26.60;42.10
11491;DHT22;5802;52.832;4.758;2023-06-14T01:48:09;26.60;42.00
11491;DHT22;5802;52.832;4.758;2023-06-14T01:50:36;26.50;42.00
11491;DHT22;5802;52.832;4.758;2023-06-14T01:53:02;26.50;42.10
11491;DHT22;5802;52.832;4.758;2023-06-14T01:55:29;26.50;42.10
11491;DHT22;5802;52.832;4.758;2023-06-14T01:58:00;26.50;42.10
11491;DHT22;5802;52.832;4.758;2023-06-14T02:00:27;26.50;42.20
11491;DHT22;5802;52.832;4.758;2023-06-14T02:02:53;26.50;42.20
11491;DHT22;5802;52.832;4.758;2023-06-14T02:05:21;26.50;42.10
11491;DHT22;5802;52.832;4.758;2023-06-14T02:07:47;26.40;42.00
11491;DHT22;5802;52.832;4.758;2023-06-14T02:10:14;26.50;42.10
11491;DHT22;5802;52.832;4.758;2023-06-14T02:12:43;26.40;42.10
11491;DHT22;5802;52.832;4.758;2023-06-14T02:15:11;26.40;42.10
11491;DHT22;5802;52.832;4.758;2023-06-14T02:17:42;26.40;42.20
11491;DHT22;5802;52.832;4.758;2023-06-14T02:20:09;26.40;42.20
11491;DHT22;5802;52.832;4.758;2023-06-14T02:22:36;26.30;42.10
11491;DHT22;5802;52.832;4.758;2023-06-14T02:25:03;26.30;42.10
11491;DHT22;5802;52.832;4.758;2023-06-14T02:27:31;26.30;42.10
11491;DHT22;5802;52.832;4.758;2023-06-14T02:29:57;26.30;42.10
11491;DHT22;5802;52.832;4.758;2023-06-14T02:32:25;26.40;42.10
11491;DHT22;5802;52.832;4.758;2023-06-14T02:34:53;26.30;42.10
11491;DHT22;5802;52.832;4.758;2023-06-14T02:37:20;26.30;42.00
11491;DHT22;5802;52.832;4.758;2023-06-14T02:39:47;26.30;42.10
11491;DHT22;5802;52.832;4.758;2023-06-14T02:42:13;26.30;42.10
11491;DHT22;5802;52.832;4.758;2023-06-14T02:44:40;26.30;42.00
11491;DHT22;5802;52.832;4.758;2023-06-14T02:47:07;26.30;42.10
11491;DHT22;5802;52.832;4.758;2023-06-14T02:49:35;26.30;42.10
11491;DHT22;5802;52.832;4.758;2023-06-14T02:52:02;26.20;42.10
11491;DHT22;5802;52.832;4.758;2023-06-14T02:54:29;26.20;42.00
11491;DHT22;5802;52.832;4.758;2023-06-14T02:56:55;26.20;42.00
11491;DHT22;5802;52.832;4.758;2023-06-14T02:59:22;26.20;42.00
11491;DHT22;5802;52.832;4.758;2023-06-14T03:01:50;26.20;42.10
11491;DHT22;5802;52.832;4.758;2023-06-14T03:04:17;26.20;42.20
11491;DHT22;5802;52.832;4.758;2023-06-14T03:06:45;26.10;42.20
11491;DHT22;5802;52.832;4.758;2023-06-14T03:09:15;26.10;42.20
11491;DHT22;5802;52.832;4.758;2023-06-14T03:11:42;26.10;42.30
11491;DHT22;5802;52.832;4.758;2023-06-14T03:14:09;26.10;42.20
11491;DHT22;5802;52.832;4.758;2023-06-14T03:16:36;26.10;42.20
11491;DHT22;5802;52.832;4.758;2023-06-14T03:19:03;26.10;42.20
11491;DHT22;5802;52.832;4.758;2023-06-14T03:21:30;26.10;42.30
11491;DHT22;5802;52.832;4.758;2023-06-14T03:23:59;26.00;42.30
11491;DHT22;5802;52.832;4.758;2023-06-14T03:26:25;26.00;42.40
11491;DHT22;5802;52.832;4.758;2023-06-14T03:28:52;26.00;42.40
11491;DHT22;5802;52.832;4.758;2023-06-14T03:31:19;26.00;42.40
11491;DHT22;5802;52.832;4.758;2023-06-14T03:33:46;26.00;42.40
11491;DHT22;5802;52.832;4.758;2023-06-14T03:36:13;25.90;42.40
11491;DHT22;5802;52.832;4.758;2023-06-14T03:38:40;25.90;42.50
11491;DHT22;5802;52.832;4.758;2023-06-14T03:41:08;25.90;42.50
11491;DHT22;5802;52.832;4.758;2023-06-14T03:43:35;25.90;42.50
11491;DHT22;5802;52.832;4.758;2023-06-14T03:46:01;25.90;42.40
11491;DHT22;5802;52.832;4.758;2023-06-14T03:48:28;25.90;42.50
11491;DHT22;5802;52.832;4.758;2023-06-14T03:50:55;25.90;42.50
11491;DHT22;5802;52.832;4.758;2023-06-14T03:53:22;25.90;42.50
11491;DHT22;5802;52.832;4.758;2023-06-14T03:55:49;25.90;42.60
11491;DHT22;5802;52.832;4.758;2023-06-14T03:58:19;25.80;42.50
11491;DHT22;5802;52.832;4.758;2023-06-14T04:00:45;25.90;42.50
11491;DHT22;5802;52.832;4.758;2023-06-14T04:03:12;25.90;42.40
11491;DHT22;5802;52.832;4.758;2023-06-14T04:05:40;25.90;42.40
11491;DHT22;5802;52.832;4.758;2023-06-14T04:08:07;25.80;42.40
11491;DHT22;5802;52.832;4.758;2023-06-14T04:10:35;25.90;42.40
11491;DHT22;5802;52.832;4.758;2023-06-14T04:13:02;25.90;42.40
11491;DHT22;5802;52.832;4.758;2023-06-14T04:15:31;25.90;42.40
11491;DHT22;5802;52.832;4.758;2023-06-14T04:17:58;25.90;42.40
11491;DHT22;5802;52.832;4.758;2023-06-14T04:20:24;25.90;42.40
11491;DHT22;5802;52.832;4.758;2023-06-14T04:22:52;25.80;42.20
11491;DHT22;5802;52.832;4.758;2023-06-14T04:25:19;25.90;42.30
11491;DHT22;5802;52.832;4.758;2023-06-14T04:27:46;25.90;42.40
11491;DHT22;5802;52.832;4.758;2023-06-14T04:30:13;25.80;42.40
11491;DHT22;5802;52.832;4.758;2023-06-14T04:32:42;25.90;42.40
11491;DHT22;5802;52.832;4.758;2023-06-14T04:35:09;25.80;42.30
11491;DHT22;5802;52.832;4.758;2023-06-14T04:37:36;25.80;42.30
11491;DHT22;5802;52.832;4.758;2023-06-14T04:40:10;25.80;42.40
11491;DHT22;5802;52.832;4.758;2023-06-14T04:42:36;25.80;42.50
11491;DHT22;5802;52.832;4.758;2023-06-14T04:45:04;25.80;42.50
11491;DHT22;5802;52.832;4.758;2023-06-14T04:47:32;25.80;42.50
11491;DHT22;5802;52.832;4.758;2023-06-14T04:50:01;25.80;42.50
11491;DHT22;5802;52.832;4.758;2023-06-14T04:52:28;25.80;42.50
11491;DHT22;5802;52.832;4.758;2023-06-14T04:54:57;25.80;42.60
11491;DHT22;5802;52.832;4.758;2023-06-14T04:57:24;25.80;42.50
11491;DHT22;5802;52.832;4.758;2023-06-14T04:59:51;25.80;42.60
11491;DHT22;5802;52.832;4.758;2023-06-14T05:02:23;25.80;42.60
11491;DHT22;5802;52.832;4.758;2023-06-14T05:04:51;25.70;42.50
11491;DHT22;5802;52.832;4.758;2023-06-14T05:07:19;25.80;42.60
11491;DHT22;5802;52.832;4.758;2023-06-14T05:09:49;25.70;42.50
11491;DHT22;5802;52.832;4.758;2023-06-14T05:12:16;25.80;42.70
11491;DHT22;5802;52.832;4.758;2023-06-14T05:14:43;25.80;42.70
11491;DHT22;5802;52.832;4.758;2023-06-14T05:17:11;25.70;42.70
11491;DHT22;5802;52.832;4.758;2023-06-14T05:19:38;25.70;42.60
11491;DHT22;5802;52.832;4.758;2023-06-14T05:22:05;25.80;42.70
11491;DHT22;5802;52.832;4.758;2023-06-14T05:24:33;25.80;42.70
11491;DHT22;5802;52.832;4.758;2023-06-14T05:27:00;25.70;42.60
11491;DHT22;5802;52.832;4.758;2023-06-14T05:29:27;25.70;42.60
11491;DHT22;5802;52.832;4.758;2023-06-14T05:31:54;25.70;42.60
11491;DHT22;5802;52.832;4.758;2023-06-14T05:34:20;25.70;42.60
11491;DHT22;5802;52.832;4.758;2023-06-14T05:36:47;25.70;42.60
11491;DHT22;5802;52.832;4.758;2023-06-14T05:39:14;25.70;42.70
11491;DHT22;5802;52.832;4.758;2023-06-14T05:41:42;25.70;42.70
11491;DHT22;5802;52.832;4.758;2023-06-14T05:44:09;25.80;42.70
11491;DHT22;5802;52.832;4.758;2023-06-14T05:46:35;25.70;43.30
11491;DHT22;5802;52.832;4.758;2023-06-14T05:49:05;25.70;42.70
11491;DHT22;5802;52.832;4.758;2023-06-14T05:51:32;25.70;42.70
11491;DHT22;5802;52.832;4.758;2023-06-14T05:53:59;25.70;42.70
11491;DHT22;5802;52.832;4.758;2023-06-14T05:56:25;25.80;42.80
11491;DHT22;5802;52.832;4.758;2023-06-14T05:58:53;25.80;42.80
11491;DHT22;5802;52.832;4.758;2023-06-14T06:01:20;25.80;42.80
11491;DHT22;5802;52.832;4.758;2023-06-14T06:03:47;25.80;42.80
11491;DHT22;5802;52.832;4.758;2023-06-14T06:06:14;25.80;42.80
11491;DHT22;5802;52.832;4.758;2023-06-14T06:08:41;25.80;42.80
11491;DHT22;5802;52.832;4.758;2023-06-14T06:11:09;25.80;43.00
11491;DHT22;5802;52.832;4.758;2023-06-14T06:13:36;25.90;43.00
11491;DHT22;5802;52.832;4.758;2023-06-14T06:16:05;25.80;42.90
11491;DHT22;5802;52.832;4.758;2023-06-14T06:18:32;25.80;42.90
11491;DHT22;5802;52.832;4.758;2023-06-14T06:20:59;25.90;43.00
11491;DHT22;5802;52.832;4.758;2023-06-14T06:23:26;25.90;42.90
11491;DHT22;5802;52.832;4.758;2023-06-14T06:25:56;25.90;42.90
11491;DHT22;5802;52.832;4.758;2023-06-14T06:28:22;25.90;42.70
11491;DHT22;5802;52.832;4.758;2023-06-14T06:30:49;25.90;42.70
11491;DHT22;5802;52.832;4.758;2023-06-14T06:33:17;26.00;42.70
11491;DHT22;5802;52.832;4.758;2023-06-14T06:35:44;26.00;42.70
11491;DHT22;5802;52.832;4.758;2023-06-14T06:38:11;26.00;42.80
11491;DHT22;5802;52.832;4.758;2023-06-14T06:40:38;26.00;42.70
11491;DHT22;5802;52.832;4.758;2023-06-14T06:43:04;26.00;42.70
11491;DHT22;5802;52.832;4.758;2023-06-14T06:45:31;26.10;42.90
11491;DHT22;5802;52.832;4.758;2023-06-14T06:47:58;26.10;42.90
11491;DHT22;5802;52.832;4.758;2023-06-14T06:50:26;26.10;42.90
11491;DHT22;5802;52.832;4.758;2023-06-14T06:52:53;26.10;42.80
11491;DHT22;5802;52.832;4.758;2023-06-14T06:55:20;26.10;42.80
11491;DHT22;5802;52.832;4.758;2023-06-14T06:57:47;26.20;42.90
11491;DHT22;5802;52.832;4.758;2023-06-14T07:00:15;26.20;43.10
11491;DHT22;5802;52.832;4.758;2023-06-14T07:02:43;26.20;43.00
11491;DHT22;5802;52.832;4.758;2023-06-14T07:05:09;26.20;42.80
11491;DHT22;5802;52.832;4.758;2023-06-14T07:07:37;26.30;42.70
11491;DHT22;5802;52.832;4.758;2023-06-14T07:10:05;26.30;42.50
11491;DHT22;5802;52.832;4.758;2023-06-14T07:12:32;26.30;42.40
11491;DHT22;5802;52.832;4.758;2023-06-14T07:15:05;26.30;42.30
11491;DHT22;5802;52.832;4.758;2023-06-14T07:17:32;26.40;42.20
11491;DHT22;5802;52.832;4.758;2023-06-14T07:19:59;26.40;42.10
11491;DHT22;5802;52.832;4.758;2023-06-14T07:22:26;26.40;42.00
11491;DHT22;5802;52.832;4.758;2023-06-14T07:24:54;26.50;42.10
11491;DHT22;5802;52.832;4.758;2023-06-14T07:27:21;26.50;42.10
11491;DHT22;5802;52.832;4.758;2023-06-14T07:29:47;26.50;42.00
11491;DHT22;5802;52.832;4.758;2023-06-14T07:32:14;26.50;42.10
11491;DHT22;5802;52.832;4.758;2023-06-14T07:34:40;26.50;42.20
11491;DHT22;5802;52.832;4.758;2023-06-14T07:37:07;26.60;42.30
11491;DHT22;5802;52.832;4.758;2023-06-14T07:39:34;26.60;42.10
11491;DHT22;5802;52.832;4.758;2023-06-14T07:42:02;26.60;42.20
11491;DHT22;5802;52.832;4.758;2023-06-14T07:44:29;26.70;42.20
11491;DHT22;5802;52.832;4.758;2023-06-14T07:46:56;26.70;41.90
11491;DHT22;5802;52.832;4.758;2023-06-14T07:49:25;26.70;41.80
11491;DHT22;5802;52.832;4.758;2023-06-14T07:51:52;26.80;41.50
11491;DHT22;5802;52.832;4.758;2023-06-14T07:54:19;26.80;41.30
11491;DHT22;5802;52.832;4.758;2023-06-14T07:56:45;26.90;41.00
11491;DHT22;5802;52.832;4.758;2023-06-14T07:59:13;26.90;40.60
11491;DHT22;5802;52.832;4.758;2023-06-14T08:01:40;26.90;40.50
11491;DHT22;5802;52.832;4.758;2023-06-14T08:04:13;27.00;40.50
11491;DHT22;5802;52.832;4.758;2023-06-14T08:06:41;27.00;40.60
11491;DHT22;5802;52.832;4.758;2023-06-14T08:09:09;27.10;40.70
11491;DHT22;5802;52.832;4.758;2023-06-14T08:11:36;27.10;40.40
11491;DHT22;5802;52.832;4.758;2023-06-14T08:14:03;27.20;40.50
11491;DHT22;5802;52.832;4.758;2023-06-14T08:16:31;27.20;40.50
11491;DHT22;5802;52.832;4.758;2023-06-14T08:18:57;27.30;40.60
11491;DHT22;5802;52.832;4.758;2023-06-14T08:21:24;27.30;40.60
11491;DHT22;5802;52.832;4.758;2023-06-14T08:23:54;27.40;40.60
11491;DHT22;5802;52.832;4.758;2023-06-14T08:26:21;27.40;40.20
11491;DHT22;5802;52.832;4.758;2023-06-14T08:28:48;27.50;40.00
11491;DHT22;5802;52.832;4.758;2023-06-14T08:31:14;27.50;40.00
11491;DHT22;5802;52.832;4.758;2023-06-14T08:33:43;27.60;39.90
11491;DHT22;5802;52.832;4.758;2023-06-14T08:36:11;27.60;42.20
11491;DHT22;5802;52.832;4.758;2023-06-14T08:38:38;27.60;41.90
11491;DHT22;5802;52.832;4.758;2023-06-14T08:41:05;27.70;40.60
11491;DHT22;5802;52.832;4.758;2023-06-14T08:43:33;27.70;39.90
11491;DHT22;5802;52.832;4.758;2023-06-14T08:46:02;27.80;39.20
11491;DHT22;5802;52.832;4.758;2023-06-14T08:48:30;27.80;39.00
11491;DHT22;5802;52.832;4.758;2023-06-14T08:51:00;27.80;38.80
11491;DHT22;5802;52.832;4.758;2023-06-14T08:53:28;27.90;38.70
11491;DHT22;5802;52.832;4.758;2023-06-14T08:55:57;27.90;38.30
11491;DHT22;5802;52.832;4.758;2023-06-14T08:58:27;27.90;38.10
11491;DHT22;5802;52.832;4.758;2023-06-14T09:00:55;28.00;38.20
11491;DHT22;5802;52.832;4.758;2023-06-14T09:03:21;28.00;38.10
11491;DHT22;5802;52.832;4.758;2023-06-14T09:05:56;28.00;38.10
11491;DHT22;5802;52.832;4.758;2023-06-14T09:08:25;28.10;37.90
11491;DHT22;5802;52.832;4.758;2023-06-14T09:10:52;28.10;37.80
11491;DHT22;5802;52.832;4.758;2023-06-14T09:13:19;28.10;37.40
11491;DHT22;5802;52.832;4.758;2023-06-14T09:15:46;28.10;37.30
11491;DHT22;5802;52.832;4.758;2023-06-14T09:18:13;28.20;37.40
11491;DHT22;5802;52.832;4.758;2023-06-14T09:20:40;28.20;37.10
11491;DHT22;5802;52.832;4.758;2023-06-14T09:23:07;28.20;37.00
11491;DHT22;5802;52.832;4.758;2023-06-14T09:25:43;28.20;36.90
11491;DHT22;5802;52.832;4.758;2023-06-14T09:28:10;28.20;36.70
11491;DHT22;5802;52.832;4.758;2023-06-14T09:30:37;28.30;36.60
11491;DHT22;5802;52.832;4.758;2023-06-14T09:33:03;28.30;36.70
11491;DHT22;5802;52.832;4.758;2023-06-14T09:35:31;28.30;36.70
11491;DHT22;5802;52.832;4.758;2023-06-14T09:37:57;28.30;36.50
11491;DHT22;5802;52.832;4.758;2023-06-14T09:40:24;28.30;36.20
11491;DHT22;5802;52.832;4.758;2023-06-14T09:42:53;28.30;36.30
11491;DHT22;5802;52.832;4.758;2023-06-14T09:45:20;28.30;36.00
11491;DHT22;5802;52.832;4.758;2023-06-14T09:47:49;28.30;36.10
11491;DHT22;5802;52.832;4.758;2023-06-14T09:50:16;28.30;36.00
11491;DHT22;5802;52.832;4.758;2023-06-14T09:52:44;28.30;36.20
11491;DHT22;5802;52.832;4.758;2023-06-14T09:55:14;28.30;36.10
11491;DHT22;5802;52.832;4.758;2023-06-14T09:57:42;28.30;36.20
11491;DHT22;5802;52.832;4.758;2023-06-14T10:00:13;28.30;35.90
11491;DHT22;5802;52.832;4.758;2023-06-14T10:02:42;28.30;35.90
11491;DHT22;5802;52.832;4.758;2023-06-14T10:05:17;28.30;35.90
11491;DHT22;5802;52.832;4.758;2023-06-14T10:07:52;28.30;35.80
11491;DHT22;5802;52.832;4.758;2023-06-14T10:10:19;28.30;36.00
11491;DHT22;5802;52.832;4.758;2023-06-14T10:12:46;28.30;36.00
11491;DHT22;5802;52.832;4.758;2023-06-14T10:15:19;28.30;35.60
11491;DHT22;5802;52.832;4.758;2023-06-14T10:17:50;28.30;35.70
11491;DHT22;5802;52.832;4.758;2023-06-14T10:20:25;28.30;35.40
11491;DHT22;5802;52.832;4.758;2023-06-14T10:22:57;28.30;35.40
11491;DHT22;5802;52.832;4.758;2023-06-14T10:25:29;28.30;35.30
11491;DHT22;5802;52.832;4.758;2023-06-14T10:28:20;28.30;35.40
11491;DHT22;5802;52.832;4.758;2023-06-14T10:31:08;28.20;35.30
11491;DHT22;5802;52.832;4.758;2023-06-14T10:33:36;28.20;35.30
11491;DHT22;5802;52.832;4.758;2023-06-14T10:36:27;28.20;35.60
11491;DHT22;5802;52.832;4.758;2023-06-14T10:39:00;28.10;35.60
11491;DHT22;5802;52.832;4.758;2023-06-14T10:41:29;28.10;35.60
11491;DHT22;5802;52.832;4.758;2023-06-14T10:44:38;28.10;35.90
11491;DHT22;5802;52.832;4.758;2023-06-14T10:47:20;28.00;36.10
11491;DHT22;5802;52.832;4.758;2023-06-14T10:49:50;28.00;36.10
11491;DHT22;5802;52.832;4.758;2023-06-14T10:52:21;28.00;36.10
11491;DHT22;5802;52.832;4.758;2023-06-14T10:55:02;27.90;36.20
11491;DHT22;5802;52.832;4.758;2023-06-14T10:57:29;27.90;36.60
11491;DHT22;5802;52.832;4.758;2023-06-14T10:59:57;27.90;36.70
11491;DHT22;5802;52.832;4.758;2023-06-14T11:02:56;27.80;36.60
11491;DHT22;5802;52.832;4.758;2023-06-14T11:05:42;27.80;36.60
11491;DHT22;5802;52.832;4.758;2023-06-14T11:08:45;27.80;36.80
11491;DHT22;5802;52.832;4.758;2023-06-14T11:11:14;27.70;36.60
11491;DHT22;5802;52.832;4.758;2023-06-14T11:13:44;27.70;36.60
11491;DHT22;5802;52.832;4.758;2023-06-14T11:16:13;27.70;36.60
11491;DHT22;5802;52.832;4.758;2023-06-14T11:18:41;27.70;36.70
11491;DHT22;5802;52.832;4.758;2023-06-14T11:21:08;27.70;36.60
11491;DHT22;5802;52.832;4.758;2023-06-14T11:23:35;27.60;36.60
11491;DHT22;5802;52.832;4.758;2023-06-14T11:26:02;27.60;37.00
11491;DHT22;5802;52.832;4.758;2023-06-14T11:28:40;27.60;37.40
11491;DHT22;5802;52.832;4.758;2023-06-14T11:31:07;27.60;37.50
11491;DHT22;5802;52.832;4.758;2023-06-14T11:33:34;27.60;37.20
11491;DHT22;5802;52.832;4.758;2023-06-14T11:36:04;27.60;36.70
11491;DHT22;5802;52.832;4.758;2023-06-14T11:38:35;27.60;36.60
11491;DHT22;5802;52.832;4.758;2023-06-14T11:41:02;27.60;37.00
11491;DHT22;5802;52.832;4.758;2023-06-14T11:43:29;27.60;37.20
11491;DHT22;5802;52.832;4.758;2023-06-14T11:45:57;27.60;37.30
11491;DHT22;5802;52.832;4.758;2023-06-14T11:48:35;27.60;37.40
11491;DHT22;5802;52.832;4.758;2023-06-14T11:51:03;27.60;37.20
11491;DHT22;5802;52.832;4.758;2023-06-14T11:53:30;27.60;37.50
11491;DHT22;5802;52.832;4.758;2023-06-14T11:55:57;27.60;37.40
11491;DHT22;5802;52.832;4.758;2023-06-14T11:58:25;27.60;37.20
11491;DHT22;5802;52.832;4.758;2023-06-14T12:00:52;27.60;37.50
11491;DHT22;5802;52.832;4.758;2023-06-14T12:03:23;27.60;37.80
11491;DHT22;5802;52.832;4.758;2023-06-14T12:05:50;27.60;37.80
11491;DHT22;5802;52.832;4.758;2023-06-14T12:08:33;27.60;37.20
11491;DHT22;5802;52.832;4.758;2023-06-14T12:11:05;27.60;37.40
11491;DHT22;5802;52.832;4.758;2023-06-14T12:13:38;27.60;37.60
11491;DHT22;5802;52.832;4.758;2023-06-14T12:16:06;27.50;37.70
11491;DHT22;5802;52.832;4.758;2023-06-14T12:18:34;27.60;37.90
11491;DHT22;5802;52.832;4.758;2023-06-14T12:21:01;27.50;37.80
11491;DHT22;5802;52.832;4.758;2023-06-14T12:23:42;27.50;37.40
11491;DHT22;5802;52.832;4.758;2023-06-14T12:26:09;27.50;37.90
11491;DHT22;5802;52.832;4.758;2023-06-14T12:28:36;27.50;37.90
11491;DHT22;5802;52.832;4.758;2023-06-14T12:31:02;27.50;37.60
11491;DHT22;5802;52.832;4.758;2023-06-14T12:33:30;27.50;37.40
11491;DHT22;5802;52.832;4.758;2023-06-14T12:35:57;27.50;37.10
11491;DHT22;5802;52.832;4.758;2023-06-14T12:38:24;27.50;36.60
11491;DHT22;5802;52.832;4.758;2023-06-14T12:40:52;27.50;36.50
11491;DHT22;5802;52.832;4.758;2023-06-14T12:43:18;27.60;36.20
11491;DHT22;5802;52.832;4.758;2023-06-14T12:45:45;27.60;36.50
11491;DHT22;5802;52.832;4.758;2023-06-14T12:48:12;27.60;37.00
11491;DHT22;5802;52.832;4.758;2023-06-14T12:50:39;27.60;37.00
11491;DHT22;5802;52.832;4.758;2023-06-14T12:53:06;27.60;36.40
11491;DHT22;5802;52.832;4.758;2023-06-14T12:55:32;27.60;36.10
11491;DHT22;5802;52.832;4.758;2023-06-14T12:58:00;27.60;36.30
11491;DHT22;5802;52.832;4.758;2023-06-14T13:00:27;27.60;36.40
11491;DHT22;5802;52.832;4.758;2023-06-14T13:02:55;27.60;36.40
11491;DHT22;5802;52.832;4.758;2023-06-14T13:05:22;27.60;36.10
11491;DHT22;5802;52.832;4.758;2023-06-14T13:07:49;27.60;35.80
11491;DHT22;5802;52.832;4.758;2023-06-14T13:10:16;27.70;35.90
11491;DHT22;5802;52.832;4.758;2023-06-14T13:12:43;27.70;35.90
11491;DHT22;5802;52.832;4.758;2023-06-14T13:15:12;27.70;36.10
11491;DHT22;5802;52.832;4.758;2023-06-14T13:17:38;27.70;36.20
11491;DHT22;5802;52.832;4.758;2023-06-14T13:20:06;27.70;36.00
11491;DHT22;5802;52.832;4.758;2023-06-14T13:22:33;27.80;36.10
11491;DHT22;5802;52.832;4.758;2023-06-14T13:25:00;27.80;36.10
11491;DHT22;5802;52.832;4.758;2023-06-14T13:27:27;27.80;36.30
11491;DHT22;5802;52.832;4.758;2023-06-14T13:29:54;27.80;36.30
11491;DHT22;5802;52.832;4.758;2023-06-14T13:32:22;27.90;36.30
11491;DHT22;5802;52.832;4.758;2023-06-14T13:34:49;27.90;36.30
11491;DHT22;5802;52.832;4.758;2023-06-14T13:37:16;27.90;36.20
11491;DHT22;5802;52.832;4.758;2023-06-14T13:39:43;27.90;35.90
11491;DHT22;5802;52.832;4.758;2023-06-14T13:42:10;28.00;35.70
11491;DHT22;5802;52.832;4.758;2023-06-14T13:44:37;28.00;35.50
11491;DHT22;5802;52.832;4.758;2023-06-14T13:47:04;28.00;35.50
11491;DHT22;5802;52.832;4.758;2023-06-14T13:49:32;28.00;35.30
11491;DHT22;5802;52.832;4.758;2023-06-14T13:52:00;28.00;35.30
11491;DHT22;5802;52.832;4.758;2023-06-14T13:54:27;28.00;35.40
11491;DHT22;5802;52.832;4.758;2023-06-14T13:56:54;28.10;35.40
11491;DHT22;5802;52.832;4.758;2023-06-14T13:59:20;28.10;35.30
11491;DHT22;5802;52.832;4.758;2023-06-14T14:01:47;28.10;35.10
11491;DHT22;5802;52.832;4.758;2023-06-14T14:04:14;28.10;35.00
11491;DHT22;5802;52.832;4.758;2023-06-14T14:06:42;28.10;34.80
11491;DHT22;5802;52.832;4.758;2023-06-14T14:09:09;28.20;35.00
11491;DHT22;5802;52.832;4.758;2023-06-14T14:11:35;28.20;34.90
11491;DHT22;5802;52.832;4.758;2023-06-14T14:14:02;28.20;34.80
11491;DHT22;5802;52.832;4.758;2023-06-14T14:16:30;28.20;34.90
11491;DHT22;5802;52.832;4.758;2023-06-14T14:18:57;28.20;34.70
11491;DHT22;5802;52.832;4.758;2023-06-14T14:21:23;28.30;34.80
11491;DHT22;5802;52.832;4.758;2023-06-14T14:23:51;28.20;34.50
11491;DHT22;5802;52.832;4.758;2023-06-14T14:26:18;28.30;35.00
11491;DHT22;5802;52.832;4.758;2023-06-14T14:28:46;28.30;35.40
11491;DHT22;5802;52.832;4.758;2023-06-14T14:31:12;28.30;34.50
11491;DHT22;5802;52.832;4.758;2023-06-14T14:33:39;28.30;34.40
11491;DHT22;5802;52.832;4.758;2023-06-14T14:36:06;28.40;34.80
11491;DHT22;5802;52.832;4.758;2023-06-14T14:38:33;28.40;35.30
11491;DHT22;5802;52.832;4.758;2023-06-14T14:41:01;28.40;35.40
11491;DHT22;5802;52.832;4.758;2023-06-14T14:43:28;28.40;35.30
11491;DHT22;5802;52.832;4.758;2023-06-14T14:45:58;28.40;35.20
11491;DHT22;5802;52.832;4.758;2023-06-14T14:48:24;28.40;35.30
11491;DHT22;5802;52.832;4.758;2023-06-14T14:50:51;28.50;36.70
11491;DHT22;5802;52.832;4.758;2023-06-14T14:53:18;28.50;38.00
11491;DHT22;5802;52.832;4.758;2023-06-14T14:55:45;28.50;39.00
11491;DHT22;5802;52.832;4.758;2023-06-14T14:58:13;28.50;39.80
11491;DHT22;5802;52.832;4.758;2023-06-14T15:00:43;28.50;40.60
11491;DHT22;5802;52.832;4.758;2023-06-14T15:03:10;28.50;41.60
11491;DHT22;5802;52.832;4.758;2023-06-14T15:05:36;28.50;41.50
11491;DHT22;5802;52.832;4.758;2023-06-14T15:08:03;28.50;41.50
11491;DHT22;5802;52.832;4.758;2023-06-14T15:10:30;28.50;41.40
11491;DHT22;5802;52.832;4.758;2023-06-14T15:12:57;28.50;41.50
11491;DHT22;5802;52.832;4.758;2023-06-14T15:15:25;28.50;41.90
11491;DHT22;5802;52.832;4.758;2023-06-14T15:17:52;28.60;42.20
11491;DHT22;5802;52.832;4.758;2023-06-14T15:20:19;28.60;43.10
11491;DHT22;5802;52.832;4.758;2023-06-14T15:22:45;28.60;42.50
11491;DHT22;5802;52.832;4.758;2023-06-14T15:25:12;28.60;42.60
11491;DHT22;5802;52.832;4.758;2023-06-14T15:27:39;28.60;42.50
11491;DHT22;5802;52.832;4.758;2023-06-14T15:30:06;28.60;42.40
11491;DHT22;5802;52.832;4.758;2023-06-14T15:32:35;28.60;42.40
11491;DHT22;5802;52.832;4.758;2023-06-14T15:35:01;28.60;42.50
11491;DHT22;5802;52.832;4.758;2023-06-14T15:37:28;28.60;42.60
11491;DHT22;5802;52.832;4.758;2023-06-14T15:39:55;28.60;42.60
11491;DHT22;5802;52.832;4.758;2023-06-14T15:42:22;28.60;42.60
11491;DHT22;5802;52.832;4.758;2023-06-14T15:44:48;28.60;42.90
11491;DHT22;5802;52.832;4.758;2023-06-14T15:47:15;28.60;43.00
11491;DHT22;5802;52.832;4.758;2023-06-14T15:49:43;28.60;43.20
11491;DHT22;5802;52.832;4.758;2023-06-14T15:52:09;28.60;43.30